Accueil
METAR-TAF:

METAR-TAF

Aéroports :

Koweït, Koweït

Aéroport international de Koweït

latitude: 29-13N, longitude: 047-59E, altitude: 55 m

Observation

Le bulletin a été fait il y a 32 minutes, à 03:00 UTC
Vent 9 kt de nord
Température 28°C
Humidité 27%
Pression 1008 hPa
Visibilité 10 km ou plus
pas de nuages en-dessous de 1500 mètres et pas de cumulonimbus.

METAR: OKBK 260300Z 35009KT CAVOK 28/07 Q1008 NOSIG

Heure: 06:32 (03:32 UTC)

Prévision

Le bulletin a été fait il y a 4 heures et 19 minutes, à 23:13 UTC
Prévision valable du 26 à 00 UTC au 27 à 06 UTC
Vent 12 kt de nord/nord-ouest
Visibilité: 8000 m

TAF: OKBK 252313Z 2600/2706 34012KT 8000 NSC

Observations et prévisions météorologiques de plus de 4000 aéroports (messages METAR et TAF).

Les stations disponibles sont représentées par des disques jaunes et rouges sur la carte.

Passer la souris dessus pour voir le nom de la station.

Cliquer dessus pour voir les observations et prévisions météorologiques.

Pour changer de carte: cliquez sur les boutons verts avec une croix noire pour zoomer, sur le bouton vert avec un tiret pour effectuer un zoom arrière, ou sur les flèches vertes pour les cartes adjacentes.


METAR-TAF: